»·PEaware :: N35CF KPSP-KHHR

N35CF :: KPSP-KHHR

FLIGHT INFORMATION

Flight Status: Arrived
Operator: Privately registered:
United States
More flights under this callsign
Pilot: Todd C. (18613)
Aircraft: BEECH AIRCRAFT A90-E90 KING AIR
(BE9L)
More flights by this aircraft type
Origin: KPSP Palm Springs Intl
United States
Destination: KHHR Northrop/Hawthorne Mun
United States
More flights between these airports :: More routes between these airports
Route: +CATH1 PSP V388 PDZ PDZ270 HHR 25 LOC
File this flight plan on PilotEdge
Remarks:
Altitude:
(Current/Filed)
14,000ft
Speed:
(Current/Filed)
215kts
Departed: 08-Oct-20 04:43 PM
Arrived: 08-Oct-20 05:18 PM
Distance/Time
Traveled:
91nm/0:35
Distance/Time
To Go:
Arrived

Flight Plot

Page will automatically refresh every two minutes.


Map Options




Map Legend


Flown Route
Filed Route
Departure Airport
Arrival Airport
Navaid (VOR, NDB)
Fix

Horizontal Profiles

Position Reports

Time Latitude Longitude Heading Altitude Ground
Speed
08-Oct-20 16:20 33.826420 -116.509366 269 421ft 0kts
08-Oct-20 16:21 33.826420 -116.509366 269 421ft 0kts
08-Oct-20 16:22 33.826420 -116.509366 269 421ft 0kts
08-Oct-20 16:23 33.826420 -116.509366 270 421ft 0kts
08-Oct-20 16:24 33.826420 -116.509366 269 421ft 0kts
08-Oct-20 16:25 33.826420 -116.509366 269 421ft 0kts
08-Oct-20 16:26 33.826420 -116.509366 269 421ft 0kts
08-Oct-20 16:27 33.826420 -116.509366 269 421ft 0kts
08-Oct-20 16:28 33.826420 -116.509366 269 421ft 0kts
08-Oct-20 16:30 33.826420 -116.509366 269 421ft 0kts
08-Oct-20 16:31 33.826420 -116.509366 269 421ft 0kts
08-Oct-20 16:32 33.826420 -116.509366 269 421ft 0kts
08-Oct-20 16:33 33.826420 -116.509366 269 421ft 0kts
08-Oct-20 16:34 33.826420 -116.509366 269 421ft 0kts
08-Oct-20 16:35 33.826420 -116.509366 269 421ft 0kts
08-Oct-20 16:36 33.826420 -116.509366 269 421ft 0kts
08-Oct-20 16:37 33.825395 -116.508200 98 417ft 11kts
08-Oct-20 16:38 33.825156 -116.505766 130 413ft 12kts
08-Oct-20 16:39 33.821582 -116.502501 142 403ft 19kts
08-Oct-20 16:40 33.818499 -116.498984 88 395ft 0kts
08-Oct-20 16:41 33.818499 -116.498984 88 395ft 0kts
08-Oct-20 16:42 33.818676 -116.497965 22 393ft 6kts
08-Oct-20 16:42 33.828527 -116.506461 323 674ft 115kts
08-Oct-20 16:44 33.864872 -116.535375 328 2914ft 128kts
08-Oct-20 16:45 33.898546 -116.552222 356 4746ft 142kts
08-Oct-20 16:46 33.920912 -116.514804 104 6367ft 165kts
08-Oct-20 16:46 33.898128 -116.478191 130 7714ft 161kts
08-Oct-20 16:48 33.917987 -116.448286 308 9516ft 146kts
08-Oct-20 16:49 33.933653 -116.497844 285 10423ft 161kts
08-Oct-20 16:49 33.935027 -116.541764 263 11212ft 166kts
08-Oct-20 16:50 33.932752 -116.600030 264 11930ft 174kts
08-Oct-20 16:51 33.935139 -116.661454 267 12237ft 192kts
08-Oct-20 16:52 33.936242 -116.730341 269 12055ft 211kts
08-Oct-20 16:53 33.941787 -116.777337 270 12107ft 213kts
08-Oct-20 16:54 33.942741 -116.848935 267 12111ft 212kts
08-Oct-20 16:55 33.938651 -116.920439 266 12014ft 214kts
08-Oct-20 16:56 33.936430 -116.991683 267 12014ft 212kts
08-Oct-20 16:57 33.934170 -117.062527 268 12016ft 212kts
08-Oct-20 16:58 33.931852 -117.134067 269 12018ft 215kts
08-Oct-20 16:59 33.929488 -117.206315 269 12013ft 216kts
08-Oct-20 17:00 33.927060 -117.278983 269 12007ft 216kts
08-Oct-20 17:01 33.924588 -117.351594 269 12002ft 217kts
08-Oct-20 17:02 33.922076 -117.424132 269 12000ft 216kts
08-Oct-20 17:03 33.919558 -117.495810 269 11295ft 199kts
08-Oct-20 17:04 33.919873 -117.558295 283 9989ft 190kts
08-Oct-20 17:05 33.933923 -117.620356 286 8770ft 194kts
08-Oct-20 17:06 33.946388 -117.683009 262 7581ft 195kts
08-Oct-20 17:07 33.939072 -117.747282 263 6445ft 192kts
08-Oct-20 17:08 33.932787 -117.809838 263 4788ft 189kts
08-Oct-20 17:09 33.927746 -117.873369 263 3207ft 182kts
08-Oct-20 17:10 33.922920 -117.939759 263 2984ft 196kts
08-Oct-20 17:11 33.922072 -118.006303 269 2982ft 195kts
08-Oct-20 17:12 33.924897 -118.072213 272 2982ft 195kts
08-Oct-20 17:13 33.928825 -118.140865 272 2062ft 208kts
08-Oct-20 17:14 33.928773 -118.208404 264 1486ft 176kts
08-Oct-20 17:15 33.926292 -118.260811 265 1247ft 124kts
08-Oct-20 17:16 33.924324 -118.301758 267 643ft 108kts
08-Oct-20 17:17 33.922888 -118.333860 266 59ft 30kts
08-Oct-20 17:18 33.922539 -118.334435 173 59ft 0kts
08-Oct-20 17:19 33.922562 -118.332452 87 59ft 14kts
08-Oct-20 17:20 33.922478 -118.327687 244 55ft 6kts
08-Oct-20 17:21 33.922530 -118.327786 356 55ft 0kts
08-Oct-20 17:22 33.922530 -118.327786 356 55ft 0kts

Navigation Log

Ident Type
Flight plan parsing failed, navigation log unavailable